createdAt,value
2023-03-19T00:02:17.070Z,91.76
2023-03-19T00:04:44.396Z,90.83
2023-03-19T00:07:11.509Z,91.28
2023-03-19T00:09:38.264Z,91.49
2023-03-19T00:12:05.495Z,92.35
2023-03-19T00:14:32.256Z,93.03
2023-03-19T00:16:58.889Z,93.56
2023-03-19T00:19:25.972Z,94.06
2023-03-19T00:21:53.093Z,93.53
2023-03-19T00:24:20.821Z,93.67
2023-03-19T00:26:48.077Z,93.40
2023-03-19T00:29:15.012Z,94.52
2023-03-19T00:31:41.925Z,94.32
2023-03-19T00:34:10.003Z,94.89
2023-03-19T00:36:37.573Z,95.06
2023-03-19T00:39:05.094Z,94.18
2023-03-19T00:41:32.501Z,94.31
2023-03-19T00:43:59.591Z,94.97
2023-03-19T00:46:26.631Z,96.85
2023-03-19T00:48:55.793Z,97.09
2023-03-19T00:51:23.912Z,96.75
2023-03-19T00:53:51.730Z,96.06
2023-03-19T00:56:19.211Z,96.86
2023-03-19T00:58:46.415Z,96.54
2023-03-19T01:01:15.867Z,96.54
2023-03-19T01:03:43.140Z,96.16
2023-03-19T01:06:09.845Z,96.78
2023-03-19T01:08:36.796Z,96.70
2023-03-19T01:11:14.415Z,96.58
2023-03-19T01:13:42.521Z,95.57
2023-03-19T01:16:10.082Z,96.06
2023-03-19T01:18:37.167Z,95.65
2023-03-19T01:21:04.176Z,95.55
2023-03-19T01:23:32.015Z,96.14
2023-03-19T01:25:58.768Z,96.00
2023-03-19T01:28:25.536Z,95.98
2023-03-19T01:30:52.548Z,95.14
2023-03-19T01:33:20.786Z,95.13
2023-03-19T01:35:53.798Z,95.39
2023-03-19T01:38:20.508Z,95.93
2023-03-19T01:40:48.755Z,96.60
2023-03-19T01:43:18.744Z,96.89
2023-03-19T01:45:48.060Z,95.50
2023-03-19T01:48:34.300Z,95.08
2023-03-19T01:51:01.668Z,94.66
2023-03-19T01:53:33.191Z,95.46
2023-03-19T01:56:04.265Z,96.33
2023-03-19T01:58:31.460Z,96.06
2023-03-19T02:00:58.609Z,97.33
2023-03-19T02:03:27.072Z,97.56
2023-03-19T02:05:56.555Z,97.14
2023-03-19T02:08:24.904Z,98.42
2023-03-19T02:10:56.096Z,97.16
2023-03-19T02:13:23.756Z,96.76
2023-03-19T02:15:51.943Z,97.01
2023-03-19T02:18:19.129Z,97.09
2023-03-19T02:20:51.309Z,97.00
2023-03-19T02:23:27.686Z,96.33
2023-03-19T02:26:04.462Z,96.46
2023-03-19T02:28:33.667Z,96.50
2023-03-19T02:31:00.722Z,97.15
2023-03-19T02:33:27.892Z,96.93
2023-03-19T02:35:56.813Z,96.94
2023-03-19T02:38:25.930Z,97.12
2023-03-19T02:41:04.795Z,96.97
2023-03-19T02:43:34.446Z,96.29
2023-03-19T02:48:29.152Z,96.95
2023-03-19T02:50:56.308Z,97.22
2023-03-19T02:53:23.584Z,97.12
2023-03-19T02:55:50.816Z,97.15
2023-03-19T02:58:17.890Z,96.96
2023-03-19T03:00:45.528Z,96.53
2023-03-19T03:03:12.804Z,97.18
2023-03-19T03:05:39.533Z,97.51
2023-03-19T03:08:06.308Z,97.78
2023-03-19T03:10:34.078Z,97.22
2023-03-19T03:13:01.852Z,98.71
2023-03-19T03:15:28.720Z,100.00
2023-03-19T03:17:56.961Z,97.39
2023-03-19T03:20:24.982Z,97.54
2023-03-19T03:22:52.127Z,98.29
2023-03-19T03:25:18.876Z,97.76
2023-03-19T03:27:45.803Z,96.85
2023-03-19T03:30:12.934Z,96.87
2023-03-19T03:32:40.424Z,97.31
2023-03-19T03:35:08.560Z,96.59
2023-03-19T03:37:37.027Z,98.35
2023-03-19T03:40:08.463Z,97.94
2023-03-19T03:42:37.545Z,98.05
2023-03-19T03:45:05.246Z,98.60
2023-03-19T03:47:32.469Z,98.89
2023-03-19T03:49:59.425Z,97.34
2023-03-19T03:52:26.598Z,97.35
2023-03-19T03:54:53.243Z,97.32
2023-03-19T03:57:19.892Z,97.25
2023-03-19T03:59:46.657Z,96.04
2023-03-19T04:02:13.395Z,96.89
2023-03-19T04:04:40.198Z,96.23
2023-03-19T04:07:06.956Z,96.88
2023-03-19T04:09:33.779Z,98.34
2023-03-19T04:12:01.160Z,97.79
2023-03-19T04:14:28.438Z,96.49
2023-03-19T04:16:55.135Z,98.20
2023-03-19T04:19:21.908Z,97.76
2023-03-19T04:21:48.654Z,98.17
2023-03-19T04:24:15.321Z,97.45
2023-03-19T04:26:42.528Z,97.18
2023-03-19T04:29:09.724Z,97.97
2023-03-19T04:31:36.524Z,97.79
2023-03-19T04:36:37.710Z,97.05
2023-03-19T04:39:05.201Z,97.30
2023-03-19T04:41:32.709Z,96.69
2023-03-19T04:43:59.436Z,96.65
2023-03-19T04:46:26.191Z,95.49
2023-03-19T04:48:52.942Z,95.88
2023-03-19T04:51:21.599Z,95.78
2023-03-19T04:53:49.598Z,95.74
2023-03-19T04:56:16.747Z,96.22
2023-03-19T04:58:44.106Z,96.28
2023-03-19T05:01:11.353Z,95.78
2023-03-19T05:03:38.324Z,96.42
2023-03-19T05:06:07.264Z,95.54
2023-03-19T05:08:34.081Z,94.87
2023-03-19T05:11:00.940Z,95.65
2023-03-19T05:13:27.664Z,95.81
2023-03-19T05:15:55.716Z,96.95
2023-03-19T05:18:23.156Z,96.09
2023-03-19T05:20:50.229Z,97.80
2023-03-19T05:23:18.131Z,100.00
2023-03-19T05:25:45.171Z,97.45
2023-03-19T05:28:12.477Z,97.47
2023-03-19T05:30:41.180Z,100.00
2023-03-19T05:33:07.937Z,99.34
2023-03-19T05:35:36.104Z,98.79
2023-03-19T05:40:29.369Z,99.86
2023-03-19T05:42:56.038Z,100.00
2023-03-19T05:45:22.704Z,100.00
2023-03-19T05:47:50.324Z,100.00
2023-03-19T05:50:18.545Z,100.00
2023-03-19T05:52:45.469Z,100.00
2023-03-19T05:55:12.420Z,100.00
2023-03-19T05:57:42.640Z,100.00
2023-03-19T06:00:10.114Z,100.00
2023-03-19T06:02:37.341Z,100.00
2023-03-19T06:05:05.234Z,100.00
2023-03-19T06:07:32.245Z,100.00
2023-03-19T06:09:59.051Z,100.00
2023-03-19T06:12:25.767Z,100.00
2023-03-19T06:14:52.394Z,100.00
2023-03-19T06:17:23.641Z,100.00
2023-03-19T06:19:50.476Z,100.00
2023-03-19T06:22:18.325Z,100.00
2023-03-19T06:24:44.986Z,100.00
2023-03-19T06:27:11.820Z,100.00
2023-03-19T06:29:38.441Z,100.00
2023-03-19T06:32:05.488Z,100.00
2023-03-19T06:34:32.207Z,100.00
2023-03-19T06:36:58.892Z,100.00
2023-03-19T06:39:26.239Z,100.00
2023-03-19T06:41:53.157Z,100.00
2023-03-19T06:44:20.468Z,100.00
2023-03-19T06:46:47.622Z,100.00
2023-03-19T06:49:14.553Z,100.00
2023-03-19T06:51:41.731Z,100.00
2023-03-19T06:54:08.826Z,100.00
2023-03-19T06:56:36.299Z,100.00
2023-03-19T06:59:04.616Z,100.00
2023-03-19T07:01:31.688Z,100.00
2023-03-19T07:03:58.490Z,100.00
2023-03-19T07:06:25.213Z,100.00
2023-03-19T07:08:51.972Z,100.00
2023-03-19T07:11:19.001Z,100.00
2023-03-19T07:13:48.887Z,100.00
2023-03-19T07:16:15.713Z,100.00
2023-03-19T07:18:42.666Z,100.00
2023-03-19T07:21:09.300Z,100.00
2023-03-19T07:23:36.144Z,100.00
2023-03-19T07:26:04.359Z,100.00
2023-03-19T07:28:31.918Z,100.00
2023-03-19T07:30:58.681Z,100.00
2023-03-19T07:33:28.466Z,99.74
2023-03-19T07:35:55.182Z,100.00
2023-03-19T07:38:21.831Z,99.39
2023-03-19T07:41:01.476Z,96.72
2023-03-19T07:43:28.753Z,99.66
2023-03-19T07:45:55.558Z,98.76
2023-03-19T07:48:22.321Z,98.32
2023-03-19T07:50:51.857Z,100.00
2023-03-19T07:53:19.515Z,97.75
2023-03-19T07:55:47.536Z,100.00
2023-03-19T07:58:14.196Z,99.61
2023-03-19T08:00:41.265Z,97.42
2023-03-19T08:03:08.192Z,98.37
2023-03-19T08:05:34.899Z,100.00
2023-03-19T08:08:01.959Z,97.84
2023-03-19T08:10:28.770Z,99.42
2023-03-19T08:12:55.448Z,96.49
2023-03-19T08:15:23.668Z,98.32
2023-03-19T08:17:57.869Z,97.58
2023-03-19T08:20:24.638Z,99.02
2023-03-19T08:22:51.488Z,99.14
2023-03-19T08:25:19.354Z,98.14
2023-03-19T08:27:46.133Z,98.11
2023-03-19T08:30:13.228Z,98.21
2023-03-19T08:32:40.059Z,97.73
2023-03-19T08:35:08.488Z,97.24
2023-03-19T08:37:35.450Z,97.35
2023-03-19T08:42:29.296Z,97.43
2023-03-19T08:44:56.288Z,95.44
2023-03-19T08:47:24.597Z,95.25
2023-03-19T08:49:52.390Z,95.58
2023-03-19T08:52:20.041Z,94.72
2023-03-19T08:54:46.727Z,94.83
2023-03-19T08:57:13.475Z,94.66
2023-03-19T08:59:40.301Z,94.40
2023-03-19T09:02:10.658Z,93.39
2023-03-19T09:04:39.222Z,93.47
2023-03-19T09:07:06.704Z,92.49
2023-03-19T09:09:33.448Z,91.18
2023-03-19T09:12:00.248Z,90.43
2023-03-19T09:14:31.156Z,90.68
2023-03-19T09:16:57.923Z,87.72
2023-03-19T09:19:24.838Z,86.72
2023-03-19T09:21:51.818Z,85.19
2023-03-19T09:24:21.627Z,85.24
2023-03-19T09:26:49.688Z,83.86
2023-03-19T09:29:16.948Z,82.74
2023-03-19T09:31:45.022Z,82.97
2023-03-19T09:34:11.970Z,81.49
2023-03-19T09:36:38.620Z,80.74
2023-03-19T09:39:09.266Z,81.45
2023-03-19T09:42:05.716Z,80.23
2023-03-19T09:44:41.426Z,81.45
2023-03-19T09:47:20.276Z,80.83
2023-03-19T09:49:51.591Z,81.71
2023-03-19T09:52:47.270Z,80.27
2023-03-19T09:55:35.350Z,79.00
2023-03-19T09:58:04.851Z,78.07
2023-03-19T10:00:37.222Z,77.70
2023-03-19T10:03:31.169Z,77.04
2023-03-19T10:06:04.474Z,73.47
2023-03-19T10:08:35.042Z,72.38
2023-03-19T10:11:03.488Z,70.70
2023-03-19T10:13:44.796Z,68.53
2023-03-19T10:16:20.281Z,68.48
2023-03-19T10:18:51.275Z,66.30
2023-03-19T10:21:37.600Z,67.55
2023-03-19T10:24:21.954Z,67.48
2023-03-19T10:26:56.903Z,67.28
2023-03-19T10:29:24.808Z,65.89
2023-03-19T10:32:00.903Z,65.23
2023-03-19T10:34:38.027Z,63.61
2023-03-19T10:37:14.059Z,64.39
2023-03-19T10:39:44.528Z,61.94
2023-03-19T10:42:42.390Z,60.95
2023-03-19T10:45:30.352Z,59.44
2023-03-19T10:47:58.407Z,59.56
2023-03-19T10:50:38.596Z,57.10
2023-03-19T10:53:28.399Z,57.57
2023-03-19T10:55:56.854Z,55.50
2023-03-19T10:58:28.471Z,57.95
2023-03-19T11:01:03.579Z,54.27
2023-03-19T11:03:35.492Z,56.29
2023-03-19T11:06:04.524Z,57.12
2023-03-19T11:08:36.544Z,55.48
2023-03-19T11:11:04.459Z,54.88
2023-03-19T11:13:36.339Z,54.78
2023-03-19T11:16:04.436Z,53.35
2023-03-19T11:18:37.578Z,50.64
2023-03-19T11:21:22.094Z,49.76
2023-03-19T11:23:58.236Z,47.40
2023-03-19T11:26:31.552Z,48.59
2023-03-19T11:31:37.747Z,47.59
2023-03-19T11:34:28.805Z,47.52
2023-03-19T11:37:04.517Z,45.81
2023-03-19T11:40:05.017Z,47.77
2023-03-19T11:42:43.347Z,47.25
2023-03-19T11:45:33.908Z,45.05
2023-03-19T11:48:04.569Z,48.77
2023-03-19T11:51:04.461Z,45.72
2023-03-19T11:53:38.497Z,46.18
2023-03-19T11:56:23.290Z,45.45
2023-03-19T11:58:59.124Z,45.49
2023-03-19T12:01:49.328Z,44.75
2023-03-19T12:05:00.830Z,44.14
2023-03-19T12:07:40.947Z,47.40
2023-03-19T12:10:28.943Z,44.06
2023-03-19T12:13:04.587Z,44.85
2023-03-19T12:15:34.602Z,47.34
2023-03-19T12:18:08.050Z,45.93
2023-03-19T12:20:46.954Z,43.84
2023-03-19T12:23:39.324Z,41.01
2023-03-19T12:26:16.165Z,42.05
2023-03-19T12:29:05.021Z,38.48
2023-03-19T12:31:41.557Z,37.25
2023-03-19T12:34:30.169Z,38.02
2023-03-19T12:37:04.855Z,40.81
2023-03-19T12:39:37.480Z,42.44
2023-03-19T12:42:07.804Z,42.96
2023-03-19T12:44:43.710Z,44.72
2023-03-19T12:47:22.849Z,45.89
2023-03-19T12:50:00.305Z,46.63
2023-03-19T12:52:41.622Z,44.60
2023-03-19T12:55:23.387Z,46.88
2023-03-19T12:58:04.669Z,46.27
2023-03-19T13:01:01.442Z,46.93
2023-03-19T13:03:37.820Z,46.53
2023-03-19T13:06:08.840Z,45.98
2023-03-19T13:08:51.532Z,46.12
2023-03-19T13:11:34.806Z,47.35
2023-03-19T13:14:04.586Z,46.29
2023-03-19T13:16:59.174Z,46.24
2023-03-19T13:19:41.560Z,46.78
2023-03-19T13:22:14.028Z,46.54
2023-03-19T13:24:44.749Z,46.68
2023-03-19T13:27:22.392Z,45.71
2023-03-19T13:30:01.566Z,45.72
2023-03-19T13:32:43.227Z,45.52
2023-03-19T13:35:39.915Z,45.64
2023-03-19T13:38:24.592Z,43.84
2023-03-19T13:40:57.246Z,44.68
2023-03-19T13:43:43.204Z,44.77
2023-03-19T13:46:12.025Z,44.62
2023-03-19T13:48:45.416Z,43.30
2023-03-19T13:51:21.986Z,43.35
2023-03-19T13:53:56.533Z,42.16
2023-03-19T13:56:30.330Z,42.49
2023-03-19T13:59:03.562Z,41.09
2023-03-19T14:01:30.218Z,41.91
2023-03-19T14:06:39.154Z,41.17
2023-03-19T14:09:28.839Z,41.62
2023-03-19T14:11:56.462Z,41.82
2023-03-19T14:14:25.188Z,41.66
2023-03-19T14:16:57.025Z,41.87
2023-03-19T14:19:24.823Z,41.18
2023-03-19T14:24:55.902Z,41.35
2023-03-19T14:27:33.062Z,42.32
2023-03-19T14:30:04.713Z,43.26
2023-03-19T14:32:41.021Z,42.62
2023-03-19T14:35:13.252Z,42.54
2023-03-19T14:37:52.345Z,43.06
2023-03-19T14:40:51.941Z,43.28
2023-03-19T14:43:35.467Z,45.50
2023-03-19T14:46:04.654Z,46.25
2023-03-19T14:49:04.992Z,46.78
2023-03-19T14:51:43.978Z,46.84
2023-03-19T14:54:55.990Z,46.89
2023-03-19T14:57:28.494Z,46.26
2023-03-19T14:59:56.023Z,47.28
2023-03-19T15:02:49.064Z,46.65
2023-03-19T15:05:33.314Z,46.15
2023-03-19T15:08:04.674Z,44.72
2023-03-19T15:10:42.163Z,45.26
2023-03-19T15:13:27.577Z,45.75
2023-03-19T15:16:03.958Z,45.57
2023-03-19T15:18:38.668Z,46.39
2023-03-19T15:21:06.513Z,47.13
2023-03-19T15:23:33.327Z,47.21
2023-03-19T15:28:44.665Z,55.58
2023-03-19T15:31:31.146Z,61.04
2023-03-19T15:34:00.299Z,60.59
2023-03-19T15:36:34.371Z,61.90
2023-03-19T15:39:07.861Z,62.49
2023-03-19T15:41:40.982Z,61.69
2023-03-19T15:44:15.915Z,60.96
2023-03-19T15:46:45.628Z,59.22
2023-03-19T15:49:31.000Z,61.90
2023-03-19T15:54:32.626Z,63.14
2023-03-19T15:56:59.508Z,65.41
2023-03-19T15:59:33.656Z,64.54
2023-03-19T16:04:30.284Z,60.48
2023-03-19T16:06:59.178Z,61.38
2023-03-19T16:09:34.423Z,58.55
2023-03-19T16:12:01.761Z,54.18
2023-03-19T16:14:40.386Z,50.67
2023-03-19T16:17:16.107Z,49.28
2023-03-19T16:19:56.730Z,49.47
2023-03-19T16:22:25.698Z,47.99
2023-03-19T16:24:53.943Z,48.36
2023-03-19T16:27:32.080Z,49.99
2023-03-19T16:30:00.733Z,51.31
2023-03-19T16:32:29.901Z,57.85
2023-03-19T16:35:04.721Z,58.93
2023-03-19T16:37:34.615Z,55.94
2023-03-19T16:40:04.829Z,58.87
2023-03-19T16:42:34.164Z,59.41
2023-03-19T16:45:04.707Z,60.92
2023-03-19T16:47:31.427Z,62.43
2023-03-19T16:49:58.046Z,63.26
2023-03-19T16:52:25.346Z,64.42
2023-03-19T16:54:52.428Z,67.67
2023-03-19T16:57:19.836Z,68.32
2023-03-19T16:59:47.544Z,69.97
2023-03-19T17:02:16.220Z,69.73
2023-03-19T17:04:43.474Z,63.92
2023-03-19T17:07:11.263Z,64.65
2023-03-19T17:09:39.421Z,68.51
2023-03-19T17:12:08.657Z,69.90
2023-03-19T17:14:35.788Z,70.96
2023-03-19T17:19:36.120Z,73.43
2023-03-19T17:24:32.726Z,74.70
2023-03-19T17:29:30.665Z,76.52
2023-03-19T17:32:02.115Z,77.80
2023-03-19T17:34:33.392Z,78.53
2023-03-19T17:37:07.695Z,78.92
2023-03-19T17:39:34.419Z,79.46
2023-03-19T17:42:01.222Z,80.41
2023-03-19T17:44:28.335Z,80.84
2023-03-19T17:46:56.288Z,82.21
2023-03-19T17:49:32.922Z,82.83
2023-03-19T17:52:00.449Z,84.44
2023-03-19T17:54:28.077Z,85.72
2023-03-19T17:56:55.939Z,86.72
2023-03-19T17:59:24.030Z,87.75
2023-03-19T18:01:52.278Z,88.70
2023-03-19T18:04:21.406Z,89.11
2023-03-19T18:06:56.075Z,89.75
2023-03-19T18:09:32.966Z,90.33
2023-03-19T18:12:00.643Z,90.89
2023-03-19T18:14:27.699Z,92.39
2023-03-19T18:16:55.128Z,92.72
2023-03-19T18:19:35.646Z,93.92
2023-03-19T18:22:04.838Z,93.88
2023-03-19T18:24:31.542Z,94.16
2023-03-19T18:26:58.193Z,93.76
2023-03-19T18:29:24.972Z,92.95
2023-03-19T18:31:52.376Z,92.59
2023-03-19T18:34:19.714Z,92.84
2023-03-19T18:36:46.473Z,93.51
2023-03-19T18:39:15.670Z,94.58
2023-03-19T18:41:42.877Z,96.09
2023-03-19T18:44:10.068Z,95.86
2023-03-19T18:46:39.311Z,96.30
2023-03-19T18:49:21.915Z,95.97
2023-03-19T18:52:01.757Z,96.50
2023-03-19T18:54:31.655Z,95.47
2023-03-19T18:57:00.977Z,95.29
2023-03-19T18:59:33.567Z,95.80
2023-03-19T19:02:03.843Z,95.96
2023-03-19T19:04:31.461Z,95.51
2023-03-19T19:06:58.386Z,95.26
2023-03-19T19:09:25.187Z,95.75
2023-03-19T19:11:54.460Z,96.63
2023-03-19T19:14:24.305Z,97.17
2023-03-19T19:16:53.233Z,97.21
2023-03-19T19:19:23.344Z,97.18
2023-03-19T19:21:51.295Z,91.17
2023-03-19T19:24:21.878Z,89.90
2023-03-19T19:26:54.211Z,89.22
2023-03-19T19:29:28.451Z,89.95
2023-03-19T19:31:55.827Z,91.11
2023-03-19T19:34:23.326Z,94.04
2023-03-19T19:36:51.182Z,95.57
2023-03-19T19:39:19.276Z,97.45
2023-03-19T19:41:48.479Z,93.48
2023-03-19T19:44:23.007Z,88.34
2023-03-19T19:46:54.088Z,87.14
2023-03-19T19:49:21.885Z,87.11
2023-03-19T19:51:48.979Z,86.63
2023-03-19T19:54:16.259Z,86.75
2023-03-19T19:56:46.239Z,87.35
2023-03-19T19:59:15.499Z,87.08
2023-03-19T20:01:42.307Z,87.37
2023-03-19T20:04:14.995Z,87.42
2023-03-19T20:06:42.016Z,87.74
2023-03-19T20:09:12.498Z,87.98
2023-03-19T20:11:39.366Z,88.29
2023-03-19T20:14:06.125Z,89.46
2023-03-19T20:16:33.006Z,88.63
2023-03-19T20:18:59.876Z,89.16
2023-03-19T20:21:26.786Z,89.71
2023-03-19T20:23:55.639Z,90.00
2023-03-19T20:26:25.224Z,89.97
2023-03-19T20:28:52.385Z,90.68
2023-03-19T20:31:29.643Z,90.93
2023-03-19T20:33:57.701Z,90.67
2023-03-19T20:36:24.952Z,91.31
2023-03-19T20:38:52.724Z,91.24
2023-03-19T20:41:22.424Z,90.37
2023-03-19T20:43:50.673Z,90.14
2023-03-19T20:46:20.660Z,91.72
2023-03-19T20:48:48.119Z,95.39
2023-03-19T20:51:21.778Z,95.33
2023-03-19T20:53:49.948Z,95.63
2023-03-19T20:56:18.938Z,95.34
2023-03-19T20:58:46.178Z,95.89
2023-03-19T21:01:15.996Z,96.41
2023-03-19T21:03:42.706Z,96.75
2023-03-19T21:06:17.801Z,96.65
2023-03-19T21:08:48.237Z,97.58
2023-03-19T21:11:22.808Z,98.64
2023-03-19T21:13:52.827Z,99.18
2023-03-19T21:16:25.909Z,99.79
2023-03-19T21:18:54.098Z,100.00
2023-03-19T21:21:31.534Z,100.00
2023-03-19T21:24:05.253Z,100.00
2023-03-19T21:26:37.536Z,100.00
2023-03-19T21:29:08.696Z,100.00
2023-03-19T21:31:35.829Z,100.00
2023-03-19T21:36:29.269Z,100.00
2023-03-19T21:38:56.485Z,100.00
2023-03-19T21:41:28.596Z,100.00
2023-03-19T21:43:57.907Z,100.00
2023-03-19T21:46:27.890Z,100.00
2023-03-19T21:48:56.635Z,100.00
2023-03-19T21:51:25.469Z,100.00
2023-03-19T21:53:53.070Z,100.00
2023-03-19T21:56:33.550Z,100.00
2023-03-19T21:59:05.034Z,100.00
2023-03-19T22:01:32.267Z,97.96
2023-03-19T22:03:58.976Z,97.02
2023-03-19T22:06:25.824Z,96.83
2023-03-19T22:08:54.324Z,96.20
2023-03-19T22:11:26.986Z,96.11
2023-03-19T22:13:55.659Z,95.76
2023-03-19T22:16:24.846Z,95.63
2023-03-19T22:18:52.870Z,95.30
2023-03-19T22:21:22.105Z,95.17
2023-03-19T22:23:52.214Z,94.89
2023-03-19T22:26:39.846Z,94.89
2023-03-19T22:29:13.361Z,94.74
2023-03-19T22:31:41.178Z,94.97
2023-03-19T22:34:14.989Z,94.64
2023-03-19T22:36:41.662Z,94.72
2023-03-19T22:39:09.285Z,95.02
2023-03-19T22:41:37.977Z,95.07
2023-03-19T22:44:08.252Z,94.68
2023-03-19T22:46:36.045Z,94.01
2023-03-19T22:49:05.054Z,94.47
2023-03-19T22:51:32.302Z,94.87
2023-03-19T22:53:58.996Z,95.85
2023-03-19T22:56:29.436Z,97.02
2023-03-19T22:58:56.823Z,98.04
2023-03-19T23:01:24.234Z,100.00
2023-03-19T23:03:51.182Z,100.00
2023-03-19T23:06:29.764Z,100.00
2023-03-19T23:08:57.554Z,100.00
2023-03-19T23:11:24.825Z,100.00
2023-03-19T23:13:51.686Z,100.00
2023-03-19T23:16:23.797Z,100.00
2023-03-19T23:18:52.703Z,100.00
2023-03-19T23:21:20.178Z,100.00
2023-03-19T23:23:47.166Z,100.00
2023-03-19T23:26:29.886Z,100.00
2023-03-19T23:29:02.240Z,100.00
2023-03-19T23:31:29.451Z,100.00
2023-03-19T23:33:56.279Z,100.00
2023-03-19T23:36:22.936Z,100.00
2023-03-19T23:38:49.650Z,100.00
2023-03-19T23:41:25.166Z,100.00
2023-03-19T23:43:56.032Z,100.00
2023-03-19T23:46:26.048Z,100.00
2023-03-19T23:48:52.781Z,100.00
2023-03-19T23:51:19.496Z,100.00
2023-03-19T23:53:46.503Z,100.00
2023-03-19T23:56:13.229Z,100.00
2023-03-19T23:58:45.517Z,99.66
